sensor_id;sensor_type;location;lat;lon;timestamp;temperature;humidity
10051;DHT22;5065;46.942;7.432;2023-07-16T00:00:39;24.90;99.90
10051;DHT22;5065;46.942;7.432;2023-07-16T00:03:07;24.90;99.90
10051;DHT22;5065;46.942;7.432;2023-07-16T00:05:36;24.80;99.90
10051;DHT22;5065;46.942;7.432;2023-07-16T00:08:04;24.80;99.90
10051;DHT22;5065;46.942;7.432;2023-07-16T00:10:34;24.80;99.90
10051;DHT22;5065;46.942;7.432;2023-07-16T00:13:02;24.70;99.90
10051;DHT22;5065;46.942;7.432;2023-07-16T00:15:29;24.70;99.90
10051;DHT22;5065;46.942;7.432;2023-07-16T00:17:57;24.60;99.90
10051;DHT22;5065;46.942;7.432;2023-07-16T00:20:24;24.60;99.90
10051;DHT22;5065;46.942;7.432;2023-07-16T00:22:51;24.60;99.90
10051;DHT22;5065;46.942;7.432;2023-07-16T00:25:20;24.60;99.90
10051;DHT22;5065;46.942;7.432;2023-07-16T00:27:47;24.60;99.90
10051;DHT22;5065;46.942;7.432;2023-07-16T00:30:14;24.60;99.90
10051;DHT22;5065;46.942;7.432;2023-07-16T00:32:41;24.60;99.90
10051;DHT22;5065;46.942;7.432;2023-07-16T00:35:09;24.50;99.90
10051;DHT22;5065;46.942;7.432;2023-07-16T00:37:36;24.50;99.90
10051;DHT22;5065;46.942;7.432;2023-07-16T00:40:04;24.50;99.90
10051;DHT22;5065;46.942;7.432;2023-07-16T00:42:32;24.50;99.90
10051;DHT22;5065;46.942;7.432;2023-07-16T00:44:59;24.50;99.90
10051;DHT22;5065;46.942;7.432;2023-07-16T00:47:27;24.50;99.90
10051;DHT22;5065;46.942;7.432;2023-07-16T00:49:54;24.50;99.90
10051;DHT22;5065;46.942;7.432;2023-07-16T00:52:22;24.50;99.90
10051;DHT22;5065;46.942;7.432;2023-07-16T00:54:49;24.50;99.90
10051;DHT22;5065;46.942;7.432;2023-07-16T00:57:17;24.50;99.90
10051;DHT22;5065;46.942;7.432;2023-07-16T00:59:45;24.50;99.90
10051;DHT22;5065;46.942;7.432;2023-07-16T01:02:12;24.50;99.90
10051;DHT22;5065;46.942;7.432;2023-07-16T01:04:40;24.40;99.90
10051;DHT22;5065;46.942;7.432;2023-07-16T01:07:08;24.30;99.90
10051;DHT22;5065;46.942;7.432;2023-07-16T01:09:42;24.50;99.90
10051;DHT22;5065;46.942;7.432;2023-07-16T01:12:09;24.40;99.90
10051;DHT22;5065;46.942;7.432;2023-07-16T01:14:37;24.40;99.90
10051;DHT22;5065;46.942;7.432;2023-07-16T01:17:07;24.40;99.90
10051;DHT22;5065;46.942;7.432;2023-07-16T01:19:34;24.40;99.90
10051;DHT22;5065;46.942;7.432;2023-07-16T01:22:16;24.30;99.90
10051;DHT22;5065;46.942;7.432;2023-07-16T01:25:16;24.30;99.90
10051;DHT22;5065;46.942;7.432;2023-07-16T01:28:05;24.30;99.90
10051;DHT22;5065;46.942;7.432;2023-07-16T01:30:36;24.30;99.90
10051;DHT22;5065;46.942;7.432;2023-07-16T01:33:05;24.30;99.90
10051;DHT22;5065;46.942;7.432;2023-07-16T01:35:33;24.30;99.90
10051;DHT22;5065;46.942;7.432;2023-07-16T01:38:00;24.30;99.90
10051;DHT22;5065;46.942;7.432;2023-07-16T01:40:29;24.30;99.90
10051;DHT22;5065;46.942;7.432;2023-07-16T01:42:57;24.30;99.90
10051;DHT22;5065;46.942;7.432;2023-07-16T01:45:24;24.30;99.90
10051;DHT22;5065;46.942;7.432;2023-07-16T01:48:00;24.30;99.90
10051;DHT22;5065;46.942;7.432;2023-07-16T01:50:32;24.30;99.90
10051;DHT22;5065;46.942;7.432;2023-07-16T01:52:59;24.40;99.90
10051;DHT22;5065;46.942;7.432;2023-07-16T01:55:27;24.30;99.90
10051;DHT22;5065;46.942;7.432;2023-07-16T01:57:54;24.30;99.90
10051;DHT22;5065;46.942;7.432;2023-07-16T02:00:21;24.30;99.90
10051;DHT22;5065;46.942;7.432;2023-07-16T02:02:48;24.30;99.90
10051;DHT22;5065;46.942;7.432;2023-07-16T02:05:17;24.30;99.90
10051;DHT22;5065;46.942;7.432;2023-07-16T02:07:44;24.30;99.90
10051;DHT22;5065;46.942;7.432;2023-07-16T02:10:11;24.30;99.90
10051;DHT22;5065;46.942;7.432;2023-07-16T02:12:38;24.30;99.90
10051;DHT22;5065;46.942;7.432;2023-07-16T02:15:06;24.30;99.90
10051;DHT22;5065;46.942;7.432;2023-07-16T02:17:33;24.30;99.90
10051;DHT22;5065;46.942;7.432;2023-07-16T02:20:00;24.30;99.90
10051;DHT22;5065;46.942;7.432;2023-07-16T02:22:29;24.20;99.90
10051;DHT22;5065;46.942;7.432;2023-07-16T02:24:56;24.30;99.90
10051;DHT22;5065;46.942;7.432;2023-07-16T02:27:23;24.20;99.90
10051;DHT22;5065;46.942;7.432;2023-07-16T02:29:50;24.20;99.90
10051;DHT22;5065;46.942;7.432;2023-07-16T02:32:18;24.20;99.90
10051;DHT22;5065;46.942;7.432;2023-07-16T02:34:45;24.20;99.90
10051;DHT22;5065;46.942;7.432;2023-07-16T02:37:12;24.20;99.90
10051;DHT22;5065;46.942;7.432;2023-07-16T02:39:45;24.20;99.90
10051;DHT22;5065;46.942;7.432;2023-07-16T02:42:13;24.20;99.90
10051;DHT22;5065;46.942;7.432;2023-07-16T02:44:40;24.20;99.90
10051;DHT22;5065;46.942;7.432;2023-07-16T02:47:10;24.20;99.90
10051;DHT22;5065;46.942;7.432;2023-07-16T02:49:38;24.20;99.90
10051;DHT22;5065;46.942;7.432;2023-07-16T02:52:05;24.20;99.90
10051;DHT22;5065;46.942;7.432;2023-07-16T02:54:34;24.10;99.90
10051;DHT22;5065;46.942;7.432;2023-07-16T02:57:04;24.10;99.90
10051;DHT22;5065;46.942;7.432;2023-07-16T02:59:33;24.00;99.90
10051;DHT22;5065;46.942;7.432;2023-07-16T03:02:00;24.00;99.90
10051;DHT22;5065;46.942;7.432;2023-07-16T03:04:27;24.00;99.90
10051;DHT22;5065;46.942;7.432;2023-07-16T03:07:01;24.00;99.90
10051;DHT22;5065;46.942;7.432;2023-07-16T03:09:29;24.00;99.90
10051;DHT22;5065;46.942;7.432;2023-07-16T03:11:58;24.00;99.90
10051;DHT22;5065;46.942;7.432;2023-07-16T03:14:27;24.00;99.90
10051;DHT22;5065;46.942;7.432;2023-07-16T03:16:54;24.00;99.90
10051;DHT22;5065;46.942;7.432;2023-07-16T03:19:26;24.00;99.90
10051;DHT22;5065;46.942;7.432;2023-07-16T03:21:53;24.00;99.90
10051;DHT22;5065;46.942;7.432;2023-07-16T03:24:21;24.00;99.90
10051;DHT22;5065;46.942;7.432;2023-07-16T03:26:48;23.90;99.90
10051;DHT22;5065;46.942;7.432;2023-07-16T03:29:15;23.90;99.90
10051;DHT22;5065;46.942;7.432;2023-07-16T03:31:43;23.90;99.90
10051;DHT22;5065;46.942;7.432;2023-07-16T03:34:10;23.90;99.90
10051;DHT22;5065;46.942;7.432;2023-07-16T03:36:38;23.90;99.90
10051;DHT22;5065;46.942;7.432;2023-07-16T03:39:05;24.00;99.90
10051;DHT22;5065;46.942;7.432;2023-07-16T03:41:35;23.90;99.90
10051;DHT22;5065;46.942;7.432;2023-07-16T03:44:04;23.90;99.90
10051;DHT22;5065;46.942;7.432;2023-07-16T03:46:32;23.90;99.90
10051;DHT22;5065;46.942;7.432;2023-07-16T03:49:00;23.90;99.90
10051;DHT22;5065;46.942;7.432;2023-07-16T03:51:29;23.80;99.90
10051;DHT22;5065;46.942;7.432;2023-07-16T03:53:56;23.90;99.90
10051;DHT22;5065;46.942;7.432;2023-07-16T03:56:23;23.80;99.90
10051;DHT22;5065;46.942;7.432;2023-07-16T03:58:50;23.80;99.90
10051;DHT22;5065;46.942;7.432;2023-07-16T04:01:17;23.80;99.90
10051;DHT22;5065;46.942;7.432;2023-07-16T04:03:45;23.80;99.90
10051;DHT22;5065;46.942;7.432;2023-07-16T04:06:14;23.80;99.90
10051;DHT22;5065;46.942;7.432;2023-07-16T04:08:41;23.80;99.90
10051;DHT22;5065;46.942;7.432;2023-07-16T04:11:08;23.80;99.90
10051;DHT22;5065;46.942;7.432;2023-07-16T04:13:35;23.80;99.90
10051;DHT22;5065;46.942;7.432;2023-07-16T04:16:03;23.80;99.90
10051;DHT22;5065;46.942;7.432;2023-07-16T04:18:30;23.70;99.90
10051;DHT22;5065;46.942;7.432;2023-07-16T04:20:57;23.70;99.90
10051;DHT22;5065;46.942;7.432;2023-07-16T04:23:26;23.70;99.90
10051;DHT22;5065;46.942;7.432;2023-07-16T04:25:54;23.70;99.90
10051;DHT22;5065;46.942;7.432;2023-07-16T04:28:22;23.60;99.90
10051;DHT22;5065;46.942;7.432;2023-07-16T04:30:49;23.60;99.90
10051;DHT22;5065;46.942;7.432;2023-07-16T04:33:16;23.50;99.90
10051;DHT22;5065;46.942;7.432;2023-07-16T04:35:44;23.50;99.90
10051;DHT22;5065;46.942;7.432;2023-07-16T04:38:12;23.50;99.90
10051;DHT22;5065;46.942;7.432;2023-07-16T04:40:41;23.40;99.90
10051;DHT22;5065;46.942;7.432;2023-07-16T04:43:09;23.40;99.90
10051;DHT22;5065;46.942;7.432;2023-07-16T04:45:38;23.30;99.90
10051;DHT22;5065;46.942;7.432;2023-07-16T04:48:08;23.30;99.90
10051;DHT22;5065;46.942;7.432;2023-07-16T04:50:35;23.40;99.90
10051;DHT22;5065;46.942;7.432;2023-07-16T04:53:02;23.30;99.90
10051;DHT22;5065;46.942;7.432;2023-07-16T04:55:34;23.30;99.90
10051;DHT22;5065;46.942;7.432;2023-07-16T04:58:03;23.30;99.90
10051;DHT22;5065;46.942;7.432;2023-07-16T05:00:31;23.30;99.90
10051;DHT22;5065;46.942;7.432;2023-07-16T05:02:59;23.20;99.90
10051;DHT22;5065;46.942;7.432;2023-07-16T05:05:26;23.20;99.90
10051;DHT22;5065;46.942;7.432;2023-07-16T05:07:53;23.10;99.90
10051;DHT22;5065;46.942;7.432;2023-07-16T05:10:21;23.20;99.90
10051;DHT22;5065;46.942;7.432;2023-07-16T05:12:48;23.20;99.90
10051;DHT22;5065;46.942;7.432;2023-07-16T05:15:17;23.30;99.90
10051;DHT22;5065;46.942;7.432;2023-07-16T05:17:44;23.20;99.90
10051;DHT22;5065;46.942;7.432;2023-07-16T05:20:11;23.20;99.90
10051;DHT22;5065;46.942;7.432;2023-07-16T05:22:38;23.30;99.90
10051;DHT22;5065;46.942;7.432;2023-07-16T05:25:06;23.20;99.90
10051;DHT22;5065;46.942;7.432;2023-07-16T05:27:36;23.30;99.90
10051;DHT22;5065;46.942;7.432;2023-07-16T05:30:12;23.30;99.90
10051;DHT22;5065;46.942;7.432;2023-07-16T05:32:40;23.30;99.90
10051;DHT22;5065;46.942;7.432;2023-07-16T05:35:08;23.30;99.90
10051;DHT22;5065;46.942;7.432;2023-07-16T05:37:35;23.30;99.90
10051;DHT22;5065;46.942;7.432;2023-07-16T05:40:03;23.30;99.90
10051;DHT22;5065;46.942;7.432;2023-07-16T05:42:30;23.30;99.90
10051;DHT22;5065;46.942;7.432;2023-07-16T05:44:57;23.20;99.90
10051;DHT22;5065;46.942;7.432;2023-07-16T05:47:24;23.20;99.90
10051;DHT22;5065;46.942;7.432;2023-07-16T05:49:53;23.30;99.90
10051;DHT22;5065;46.942;7.432;2023-07-16T05:52:20;23.30;99.90
10051;DHT22;5065;46.942;7.432;2023-07-16T05:54:47;23.30;99.90
10051;DHT22;5065;46.942;7.432;2023-07-16T05:57:15;23.40;99.90
10051;DHT22;5065;46.942;7.432;2023-07-16T05:59:42;23.40;99.90
10051;DHT22;5065;46.942;7.432;2023-07-16T06:02:09;23.50;99.90
10051;DHT22;5065;46.942;7.432;2023-07-16T06:04:36;23.50;99.90
10051;DHT22;5065;46.942;7.432;2023-07-16T06:07:05;23.50;99.90
10051;DHT22;5065;46.942;7.432;2023-07-16T06:09:33;23.50;99.90
10051;DHT22;5065;46.942;7.432;2023-07-16T06:12:00;23.40;99.90
10051;DHT22;5065;46.942;7.432;2023-07-16T06:14:27;23.40;99.90
10051;DHT22;5065;46.942;7.432;2023-07-16T06:16:54;23.40;99.90
10051;DHT22;5065;46.942;7.432;2023-07-16T06:19:24;23.40;99.90
10051;DHT22;5065;46.942;7.432;2023-07-16T06:21:51;23.40;99.90
10051;DHT22;5065;46.942;7.432;2023-07-16T06:24:20;23.30;99.90
10051;DHT22;5065;46.942;7.432;2023-07-16T06:26:47;23.40;99.90
10051;DHT22;5065;46.942;7.432;2023-07-16T06:29:15;23.40;99.90
10051;DHT22;5065;46.942;7.432;2023-07-16T06:31:42;23.40;99.90
10051;DHT22;5065;46.942;7.432;2023-07-16T06:34:10;23.50;99.90
10051;DHT22;5065;46.942;7.432;2023-07-16T06:36:38;23.50;99.90
10051;DHT22;5065;46.942;7.432;2023-07-16T06:39:05;23.60;99.90
10051;DHT22;5065;46.942;7.432;2023-07-16T06:41:34;23.50;99.90
10051;DHT22;5065;46.942;7.432;2023-07-16T06:44:01;23.60;99.90
10051;DHT22;5065;46.942;7.432;2023-07-16T06:46:28;23.70;99.90
10051;DHT22;5065;46.942;7.432;2023-07-16T06:48:55;23.70;99.90
10051;DHT22;5065;46.942;7.432;2023-07-16T06:51:23;23.70;99.90
10051;DHT22;5065;46.942;7.432;2023-07-16T06:53:50;23.80;99.90
10051;DHT22;5065;46.942;7.432;2023-07-16T06:56:18;23.80;99.90
10051;DHT22;5065;46.942;7.432;2023-07-16T06:58:47;23.90;99.90
10051;DHT22;5065;46.942;7.432;2023-07-16T07:01:14;24.10;99.90
10051;DHT22;5065;46.942;7.432;2023-07-16T07:03:44;24.30;99.90
10051;DHT22;5065;46.942;7.432;2023-07-16T07:06:11;24.50;99.90
10051;DHT22;5065;46.942;7.432;2023-07-16T07:08:38;24.60;99.90
10051;DHT22;5065;46.942;7.432;2023-07-16T07:11:06;24.80;99.90
10051;DHT22;5065;46.942;7.432;2023-07-16T07:13:33;24.80;99.90
10051;DHT22;5065;46.942;7.432;2023-07-16T07:16:04;24.90;99.90
10051;DHT22;5065;46.942;7.432;2023-07-16T07:18:34;24.90;99.90
10051;DHT22;5065;46.942;7.432;2023-07-16T07:21:01;25.10;99.90
10051;DHT22;5065;46.942;7.432;2023-07-16T07:23:28;25.10;99.90
10051;DHT22;5065;46.942;7.432;2023-07-16T07:25:55;25.20;99.90
10051;DHT22;5065;46.942;7.432;2023-07-16T07:28:22;25.30;99.90
10051;DHT22;5065;46.942;7.432;2023-07-16T07:30:49;25.30;99.90
10051;DHT22;5065;46.942;7.432;2023-07-16T07:33:18;25.40;99.90
10051;DHT22;5065;46.942;7.432;2023-07-16T07:35:47;25.40;99.90
10051;DHT22;5065;46.942;7.432;2023-07-16T07:38:16;25.40;99.90
10051;DHT22;5065;46.942;7.432;2023-07-16T07:40:44;25.40;99.90
10051;DHT22;5065;46.942;7.432;2023-07-16T07:43:11;25.50;99.90
10051;DHT22;5065;46.942;7.432;2023-07-16T07:45:38;25.70;99.90
10051;DHT22;5065;46.942;7.432;2023-07-16T07:48:05;25.90;99.90
10051;DHT22;5065;46.942;7.432;2023-07-16T07:50:34;26.10;99.90
10051;DHT22;5065;46.942;7.432;2023-07-16T07:53:01;26.50;99.90
10051;DHT22;5065;46.942;7.432;2023-07-16T07:55:28;26.80;99.90
10051;DHT22;5065;46.942;7.432;2023-07-16T07:57:55;26.90;99.90
10051;DHT22;5065;46.942;7.432;2023-07-16T08:00:23;26.90;99.90
10051;DHT22;5065;46.942;7.432;2023-07-16T08:02:50;27.00;99.90
10051;DHT22;5065;46.942;7.432;2023-07-16T08:05:17;27.10;99.90
10051;DHT22;5065;46.942;7.432;2023-07-16T08:07:46;27.20;99.90
10051;DHT22;5065;46.942;7.432;2023-07-16T08:10:13;27.40;99.90
10051;DHT22;5065;46.942;7.432;2023-07-16T08:12:40;27.70;99.90
10051;DHT22;5065;46.942;7.432;2023-07-16T08:15:08;27.80;99.90
10051;DHT22;5065;46.942;7.432;2023-07-16T08:17:39;27.80;99.90
10051;DHT22;5065;46.942;7.432;2023-07-16T08:20:08;27.60;99.90
10051;DHT22;5065;46.942;7.432;2023-07-16T08:22:35;27.30;99.90
10051;DHT22;5065;46.942;7.432;2023-07-16T08:25:05;27.30;99.90
10051;DHT22;5065;46.942;7.432;2023-07-16T08:27:32;27.30;99.90
10051;DHT22;5065;46.942;7.432;2023-07-16T08:30:00;27.30;99.90
10051;DHT22;5065;46.942;7.432;2023-07-16T08:32:27;27.30;99.90
10051;DHT22;5065;46.942;7.432;2023-07-16T08:34:54;27.30;99.90
10051;DHT22;5065;46.942;7.432;2023-07-16T08:37:21;27.50;99.90
10051;DHT22;5065;46.942;7.432;2023-07-16T08:39:51;27.90;99.90
10051;DHT22;5065;46.942;7.432;2023-07-16T08:42:21;28.20;98.80
10051;DHT22;5065;46.942;7.432;2023-07-16T08:44:49;28.30;99.10
10051;DHT22;5065;46.942;7.432;2023-07-16T08:47:16;28.40;99.10
10051;DHT22;5065;46.942;7.432;2023-07-16T08:49:52;28.40;99.30
10051;DHT22;5065;46.942;7.432;2023-07-16T08:52:20;28.20;99.10
10051;DHT22;5065;46.942;7.432;2023-07-16T08:54:47;28.00;99.80
10051;DHT22;5065;46.942;7.432;2023-07-16T08:57:14;27.80;99.90
10051;DHT22;5065;46.942;7.432;2023-07-16T08:59:44;27.60;99.90
10051;DHT22;5065;46.942;7.432;2023-07-16T09:02:15;27.40;99.90
10051;DHT22;5065;46.942;7.432;2023-07-16T09:04:43;27.10;99.90
10051;DHT22;5065;46.942;7.432;2023-07-16T09:07:11;27.00;99.90
10051;DHT22;5065;46.942;7.432;2023-07-16T09:09:41;27.00;99.90
10051;DHT22;5065;46.942;7.432;2023-07-16T09:12:11;26.90;99.90
10051;DHT22;5065;46.942;7.432;2023-07-16T09:14:40;27.00;99.90
10051;DHT22;5065;46.942;7.432;2023-07-16T09:17:09;26.90;99.90
10051;DHT22;5065;46.942;7.432;2023-07-16T09:19:36;27.00;99.90
10051;DHT22;5065;46.942;7.432;2023-07-16T09:22:04;27.10;99.90
10051;DHT22;5065;46.942;7.432;2023-07-16T09:24:31;27.10;99.90
10051;DHT22;5065;46.942;7.432;2023-07-16T09:26:58;27.30;99.90
10051;DHT22;5065;46.942;7.432;2023-07-16T09:29:27;27.20;99.90
10051;DHT22;5065;46.942;7.432;2023-07-16T09:31:56;27.30;99.90
10051;DHT22;5065;46.942;7.432;2023-07-16T09:34:27;27.50;99.90
10051;DHT22;5065;46.942;7.432;2023-07-16T09:36:55;27.60;99.90
10051;DHT22;5065;46.942;7.432;2023-07-16T09:39:23;27.50;99.90
10051;DHT22;5065;46.942;7.432;2023-07-16T09:41:51;27.40;99.90
10051;DHT22;5065;46.942;7.432;2023-07-16T09:44:19;27.40;99.90
10051;DHT22;5065;46.942;7.432;2023-07-16T09:46:47;27.40;99.90
10051;DHT22;5065;46.942;7.432;2023-07-16T09:49:15;27.50;99.90
10051;DHT22;5065;46.942;7.432;2023-07-16T09:51:45;27.60;99.90
10051;DHT22;5065;46.942;7.432;2023-07-16T09:54:14;27.70;99.90
10051;DHT22;5065;46.942;7.432;2023-07-16T09:56:45;27.80;99.90
10051;DHT22;5065;46.942;7.432;2023-07-16T09:59:16;27.90;99.90
10051;DHT22;5065;46.942;7.432;2023-07-16T10:01:43;27.90;99.60
10051;DHT22;5065;46.942;7.432;2023-07-16T10:04:20;28.00;99.10
10051;DHT22;5065;46.942;7.432;2023-07-16T10:06:54;27.90;98.30
10051;DHT22;5065;46.942;7.432;2023-07-16T10:09:38;27.80;98.90
10051;DHT22;5065;46.942;7.432;2023-07-16T10:12:13;27.70;99.60
10051;DHT22;5065;46.942;7.432;2023-07-16T10:14:42;27.70;99.10
10051;DHT22;5065;46.942;7.432;2023-07-16T10:17:14;27.80;99.30
10051;DHT22;5065;46.942;7.432;2023-07-16T10:19:55;27.80;99.20
10051;DHT22;5065;46.942;7.432;2023-07-16T10:22:34;27.80;99.20
10051;DHT22;5065;46.942;7.432;2023-07-16T10:25:03;27.80;99.10
10051;DHT22;5065;46.942;7.432;2023-07-16T10:27:32;27.80;98.90
10051;DHT22;5065;46.942;7.432;2023-07-16T10:30:00;27.80;99.10
10051;DHT22;5065;46.942;7.432;2023-07-16T10:32:29;27.80;99.00
10051;DHT22;5065;46.942;7.432;2023-07-16T10:34:57;27.70;96.70
10051;DHT22;5065;46.942;7.432;2023-07-16T10:37:25;27.60;98.40
10051;DHT22;5065;46.942;7.432;2023-07-16T10:39:56;27.70;98.80
10051;DHT22;5065;46.942;7.432;2023-07-16T10:42:24;27.70;97.90
10051;DHT22;5065;46.942;7.432;2023-07-16T10:44:53;27.80;98.20
10051;DHT22;5065;46.942;7.432;2023-07-16T10:47:22;27.80;96.70
10051;DHT22;5065;46.942;7.432;2023-07-16T10:49:52;28.00;98.00
10051;DHT22;5065;46.942;7.432;2023-07-16T10:52:20;28.10;98.30
10051;DHT22;5065;46.942;7.432;2023-07-16T10:54:48;28.10;98.10
10051;DHT22;5065;46.942;7.432;2023-07-16T10:57:21;28.20;98.00
10051;DHT22;5065;46.942;7.432;2023-07-16T10:59:50;28.30;98.00
10051;DHT22;5065;46.942;7.432;2023-07-16T11:02:17;28.30;97.80
10051;DHT22;5065;46.942;7.432;2023-07-16T11:04:46;28.30;97.70
10051;DHT22;5065;46.942;7.432;2023-07-16T11:07:14;28.40;97.70
10051;DHT22;5065;46.942;7.432;2023-07-16T11:09:42;28.40;97.30
10051;DHT22;5065;46.942;7.432;2023-07-16T11:12:10;28.40;97.30
10051;DHT22;5065;46.942;7.432;2023-07-16T11:14:42;28.40;97.20
10051;DHT22;5065;46.942;7.432;2023-07-16T11:17:10;28.40;97.30
10051;DHT22;5065;46.942;7.432;2023-07-16T11:19:38;28.50;96.90
10051;DHT22;5065;46.942;7.432;2023-07-16T11:22:07;28.60;96.20
10051;DHT22;5065;46.942;7.432;2023-07-16T11:24:39;28.60;96.20
10051;DHT22;5065;46.942;7.432;2023-07-16T11:27:12;28.50;94.60
10051;DHT22;5065;46.942;7.432;2023-07-16T11:29:45;28.50;96.10
10051;DHT22;5065;46.942;7.432;2023-07-16T11:32:13;28.50;96.10
10051;DHT22;5065;46.942;7.432;2023-07-16T11:34:52;28.50;95.90
10051;DHT22;5065;46.942;7.432;2023-07-16T11:37:20;28.50;95.30
10051;DHT22;5065;46.942;7.432;2023-07-16T11:39:48;28.40;95.50
10051;DHT22;5065;46.942;7.432;2023-07-16T11:42:22;28.40;95.50
10051;DHT22;5065;46.942;7.432;2023-07-16T11:44:51;28.30;95.40
10051;DHT22;5065;46.942;7.432;2023-07-16T11:47:20;28.20;95.20
10051;DHT22;5065;46.942;7.432;2023-07-16T11:49:48;28.20;95.20
10051;DHT22;5065;46.942;7.432;2023-07-16T11:52:19;28.10;95.30
10051;DHT22;5065;46.942;7.432;2023-07-16T11:54:47;28.00;94.70
10051;DHT22;5065;46.942;7.432;2023-07-16T11:57:14;27.90;94.60
10051;DHT22;5065;46.942;7.432;2023-07-16T11:59:42;27.80;94.90
10051;DHT22;5065;46.942;7.432;2023-07-16T12:02:11;27.70;95.00
10051;DHT22;5065;46.942;7.432;2023-07-16T12:04:38;27.70;95.10
10051;DHT22;5065;46.942;7.432;2023-07-16T12:07:05;27.60;95.00
10051;DHT22;5065;46.942;7.432;2023-07-16T12:09:33;27.60;95.00
10051;DHT22;5065;46.942;7.432;2023-07-16T12:12:00;27.60;95.00
10051;DHT22;5065;46.942;7.432;2023-07-16T12:14:28;27.40;94.90
10051;DHT22;5065;46.942;7.432;2023-07-16T12:16:55;27.40;95.20
10051;DHT22;5065;46.942;7.432;2023-07-16T12:19:24;27.50;95.30
10051;DHT22;5065;46.942;7.432;2023-07-16T12:21:53;27.50;95.10
10051;DHT22;5065;46.942;7.432;2023-07-16T12:24:20;27.50;95.00
10051;DHT22;5065;46.942;7.432;2023-07-16T12:26:47;27.50;95.20
10051;DHT22;5065;46.942;7.432;2023-07-16T12:29:14;27.50;95.20
10051;DHT22;5065;46.942;7.432;2023-07-16T12:31:42;27.50;95.20
10051;DHT22;5065;46.942;7.432;2023-07-16T12:34:09;27.50;94.90
10051;DHT22;5065;46.942;7.432;2023-07-16T12:36:38;27.50;95.20
10051;DHT22;5065;46.942;7.432;2023-07-16T12:39:05;27.50;95.60
10051;DHT22;5065;46.942;7.432;2023-07-16T12:41:32;27.50;95.30
10051;DHT22;5065;46.942;7.432;2023-07-16T12:43:59;27.50;95.40
10051;DHT22;5065;46.942;7.432;2023-07-16T12:46:27;27.50;95.10
10051;DHT22;5065;46.942;7.432;2023-07-16T12:48:54;27.60;95.40
10051;DHT22;5065;46.942;7.432;2023-07-16T12:51:21;27.60;95.90
10051;DHT22;5065;46.942;7.432;2023-07-16T12:53:50;27.60;95.80
10051;DHT22;5065;46.942;7.432;2023-07-16T12:56:17;27.70;95.60
10051;DHT22;5065;46.942;7.432;2023-07-16T12:58:44;27.70;95.60
10051;DHT22;5065;46.942;7.432;2023-07-16T13:01:11;27.70;95.50
10051;DHT22;5065;46.942;7.432;2023-07-16T13:03:38;27.60;95.70
10051;DHT22;5065;46.942;7.432;2023-07-16T13:06:06;27.50;95.40
10051;DHT22;5065;46.942;7.432;2023-07-16T13:08:33;27.50;95.30
10051;DHT22;5065;46.942;7.432;2023-07-16T13:11:02;27.50;95.90
10051;DHT22;5065;46.942;7.432;2023-07-16T13:13:29;27.50;96.10
10051;DHT22;5065;46.942;7.432;2023-07-16T13:15:56;27.50;95.90
10051;DHT22;5065;46.942;7.432;2023-07-16T13:18:24;27.50;95.70
10051;DHT22;5065;46.942;7.432;2023-07-16T13:20:51;27.50;95.40
10051;DHT22;5065;46.942;7.432;2023-07-16T13:23:18;27.60;95.30
10051;DHT22;5065;46.942;7.432;2023-07-16T13:25:45;27.60;95.40
10051;DHT22;5065;46.942;7.432;2023-07-16T13:28:18;27.60;95.90
10051;DHT22;5065;46.942;7.432;2023-07-16T13:30:46;27.50;95.30
10051;DHT22;5065;46.942;7.432;2023-07-16T13:33:13;27.40;95.50
10051;DHT22;5065;46.942;7.432;2023-07-16T13:35:40;27.40;95.90
10051;DHT22;5065;46.942;7.432;2023-07-16T13:38:07;27.50;95.90
10051;DHT22;5065;46.942;7.432;2023-07-16T13:40:35;27.60;96.10
10051;DHT22;5065;46.942;7.432;2023-07-16T13:43:02;27.70;96.20
10051;DHT22;5065;46.942;7.432;2023-07-16T13:45:31;27.80;96.20
10051;DHT22;5065;46.942;7.432;2023-07-16T13:47:59;27.80;96.10
10051;DHT22;5065;46.942;7.432;2023-07-16T13:50:26;27.90;95.90
10051;DHT22;5065;46.942;7.432;2023-07-16T13:52:53;27.90;96.00
10051;DHT22;5065;46.942;7.432;2023-07-16T13:55:21;28.00;95.40
10051;DHT22;5065;46.942;7.432;2023-07-16T13:57:48;28.00;95.40
10051;DHT22;5065;46.942;7.432;2023-07-16T14:00:15;28.00;95.40
10051;DHT22;5065;46.942;7.432;2023-07-16T14:02:45;28.10;95.70
10051;DHT22;5065;46.942;7.432;2023-07-16T14:05:15;28.10;95.90
10051;DHT22;5065;46.942;7.432;2023-07-16T14:07:42;28.10;95.60
10051;DHT22;5065;46.942;7.432;2023-07-16T14:10:09;28.10;95.00
10051;DHT22;5065;46.942;7.432;2023-07-16T14:12:36;28.10;95.40
10051;DHT22;5065;46.942;7.432;2023-07-16T14:15:04;28.20;95.80
10051;DHT22;5065;46.942;7.432;2023-07-16T14:17:32;28.20;95.70
10051;DHT22;5065;46.942;7.432;2023-07-16T14:20:00;28.20;95.30
10051;DHT22;5065;46.942;7.432;2023-07-16T14:22:27;28.10;95.10
10051;DHT22;5065;46.942;7.432;2023-07-16T14:24:55;28.10;94.80
10051;DHT22;5065;46.942;7.432;2023-07-16T14:27:22;28.00;94.80
10051;DHT22;5065;46.942;7.432;2023-07-16T14:29:49;27.90;95.10
10051;DHT22;5065;46.942;7.432;2023-07-16T14:32:16;27.90;94.90
10051;DHT22;5065;46.942;7.432;2023-07-16T14:34:43;27.80;94.90
10051;DHT22;5065;46.942;7.432;2023-07-16T14:37:12;27.80;95.20
10051;DHT22;5065;46.942;7.432;2023-07-16T14:39:39;27.80;95.20
10051;DHT22;5065;46.942;7.432;2023-07-16T14:42:06;27.80;95.10
10051;DHT22;5065;46.942;7.432;2023-07-16T14:44:34;27.80;95.10
10051;DHT22;5065;46.942;7.432;2023-07-16T14:47:02;27.80;95.20
10051;DHT22;5065;46.942;7.432;2023-07-16T14:49:29;27.60;95.10
10051;DHT22;5065;46.942;7.432;2023-07-16T14:52:00;27.60;95.60
10051;DHT22;5065;46.942;7.432;2023-07-16T14:54:29;27.60;95.50
10051;DHT22;5065;46.942;7.432;2023-07-16T14:56:56;27.60;95.60
10051;DHT22;5065;46.942;7.432;2023-07-16T14:59:23;27.60;95.40
10051;DHT22;5065;46.942;7.432;2023-07-16T15:01:50;27.70;95.50
10051;DHT22;5065;46.942;7.432;2023-07-16T15:04:18;27.70;95.10
10051;DHT22;5065;46.942;7.432;2023-07-16T15:06:45;27.60;95.30
10051;DHT22;5065;46.942;7.432;2023-07-16T15:09:12;27.50;95.40
10051;DHT22;5065;46.942;7.432;2023-07-16T15:11:41;27.50;95.40
10051;DHT22;5065;46.942;7.432;2023-07-16T15:14:08;27.60;95.70
10051;DHT22;5065;46.942;7.432;2023-07-16T15:16:36;27.70;95.70
10051;DHT22;5065;46.942;7.432;2023-07-16T15:19:03;27.80;95.70
10051;DHT22;5065;46.942;7.432;2023-07-16T15:21:31;27.90;95.40
10051;DHT22;5065;46.942;7.432;2023-07-16T15:23:58;27.90;95.10
10051;DHT22;5065;46.942;7.432;2023-07-16T15:26:25;27.90;95.20
10051;DHT22;5065;46.942;7.432;2023-07-16T15:28:55;28.00;95.30
10051;DHT22;5065;46.942;7.432;2023-07-16T15:31:22;28.00;95.10
10051;DHT22;5065;46.942;7.432;2023-07-16T15:33:53;28.00;95.30
10051;DHT22;5065;46.942;7.432;2023-07-16T15:36:20;28.10;95.30
10051;DHT22;5065;46.942;7.432;2023-07-16T15:38:48;28.00;95.10
10051;DHT22;5065;46.942;7.432;2023-07-16T15:41:17;28.00;95.00
10051;DHT22;5065;46.942;7.432;2023-07-16T15:43:45;27.90;94.50
10051;DHT22;5065;46.942;7.432;2023-07-16T15:46:16;27.90;94.90
10051;DHT22;5065;46.942;7.432;2023-07-16T15:48:44;28.00;95.00
10051;DHT22;5065;46.942;7.432;2023-07-16T15:51:12;27.90;94.70